Time;durP1;ratioP1;P1;durP2;ratioP2;P2;SDS_P1;SDS_P2;PMS_P1;PMS_P2;Temp;Humidity;BMP_temperature;BMP_pressure;BME280_temperature;BME280_humidity;BME280_pressure;Samples;Min_cycle;Max_cycle;Signal;HPM_P1;HPM_P2
2021/12/01 00:01:14;;;;;;;4.12;2.90;;;;;;;2.04;88.40;99374.28;1584498;88;21405;-74
2021/12/01 00:03:41;;;;;;;3.50;2.75;;;;;;;2.06;88.41;99383.20;1594646;88;21122;-74
2021/12/01 00:06:10;;;;;;;3.70;3.25;;;;;;;2.06;88.39;99377.68;1582182;88;21108;-73
2021/12/01 00:08:37;;;;;;;4.83;3.30;;;;;;;2.06;88.36;99379.38;1639873;86;20923;-73
2021/12/01 00:11:03;;;;;;;3.37;3.08;;;;;;;2.05;88.37;99388.73;1642912;86;20993;-74
2021/12/01 00:13:32;;;;;;;4.67;3.05;;;;;;;2.04;88.32;99395.10;1616504;86;20969;-73
2021/12/01 00:15:58;;;;;;;5.00;3.42;;;;;;;2.02;88.32;99392.55;1637528;86;20923;-74
2021/12/01 00:18:43;;;;;;;4.92;3.80;;;;;;;2.01;88.35;99395.11;1601410;87;20967;-74
2021/12/01 00:21:09;;;;;;;4.62;3.30;;;;;;;2.01;88.35;99405.30;1605938;89;20953;-74
2021/12/01 00:23:35;;;;;;;;;;;;;;;2.01;88.36;99412.53;1608263;89;20989;-74
2021/12/01 00:26:02;;;;;;;;;;;;;;;1.98;88.33;99409.55;1587734;87;20209;-74
2021/12/01 00:28:29;;;;;;;4.37;3.37;;;;;;;1.98;88.34;99414.66;1600541;89;20121;-74
2021/12/01 00:30:57;;;;;;;4.33;3.33;;;;;;;1.95;88.35;99413.80;1608170;89;21050;-74
2021/12/01 00:33:25;;;;;;;4.55;3.58;;;;;;;1.93;88.36;99424.00;1606426;89;20984;-74
2021/12/01 00:35:53;;;;;;;;;;;;;;;1.93;88.38;99432.08;1600490;87;20990;-73
2021/12/01 00:38:21;;;;;;;5.05;3.20;;;;;;;1.92;88.40;99431.22;1608021;88;20409;-73
2021/12/01 00:40:48;;;;;;;3.67;2.90;;;;;;;1.92;88.38;99432.50;1608196;88;21406;-73
2021/12/01 00:43:18;;;;;;;4.35;3.42;;;;;;;1.92;88.42;99433.77;1599109;87;20949;-73
2021/12/01 00:45:57;;;;;;;3.67;3.15;;;;;;;1.92;88.42;99438.02;1575232;89;21183;-74
2021/12/01 00:48:25;;;;;;;4.20;3.65;;;;;;;1.93;88.42;99430.80;1583432;89;20930;-73
2021/12/01 00:50:53;;;;;;;3.00;2.70;;;;;;;1.91;88.36;99433.77;1597104;89;21136;-73
2021/12/01 00:53:19;;;;;;;3.17;2.87;;;;;;;1.88;88.37;99431.22;1606479;89;21619;-73
2021/12/01 00:55:45;;;;;;;5.17;3.45;;;;;;;1.87;88.35;99435.47;1607060;88;21143;-74
2021/12/01 00:58:15;;;;;;;4.87;3.20;;;;;;;1.84;88.33;99449.48;1593618;88;21114;-74
2021/12/01 01:00:42;;;;;;;4.15;3.10;;;;;;;1.81;88.32;99452.45;1593296;89;21061;-75
2021/12/01 01:03:09;;;;;;;6.62;3.12;;;;;;;1.79;88.33;99456.70;1604677;88;21179;-74
2021/12/01 01:05:37;;;;;;;5.10;3.22;;;;;;;1.76;88.33;99459.25;1606607;89;21080;-74
2021/12/01 01:08:07;;;;;;;3.27;2.75;;;;;;;1.74;88.36;99466.05;1607424;89;20969;-74
2021/12/01 01:18:47;;;;;;;3.95;2.87;;;;;;;1.60;88.28;99490.22;1588476;89;21092;-74
2021/12/01 01:21:17;;;;;;;7.22;2.77;;;;;;;1.55;88.31;99486.42;1643221;87;21095;-74
2021/12/01 01:23:45;;;;;;;2.67;2.27;;;;;;;1.52;88.30;99497.03;1646051;86;21055;-73
2021/12/01 01:26:16;;;;;;;2.70;2.33;;;;;;;1.47;88.29;99499.56;1646549;86;20996;-74
2021/12/01 01:28:44;;;;;;;2.67;2.47;;;;;;;1.41;88.27;99501.24;1645705;86;21027;-74
2021/12/01 01:31:12;;;;;;;3.10;2.58;;;;;;;1.37;88.31;99496.56;1620518;87;21506;-74
2021/12/01 01:33:39;;;;;;;4.28;2.37;;;;;;;1.32;88.27;99503.34;1637866;86;21118;-74
2021/12/01 01:36:14;;;;;;;2.58;2.12;;;;;;;1.27;88.30;99505.87;1634577;87;21451;-74
2021/12/01 01:38:42;;;;;;;4.97;2.00;;;;;;;1.23;88.32;99506.70;1642841;87;21283;-73
2021/12/01 01:41:12;;;;;;;1.92;1.82;;;;;;;1.20;88.30;99512.20;1646721;86;20963;-73
2021/12/01 01:43:44;;;;;;;3.75;2.35;;;;;;;1.15;88.31;99518.55;1631048;87;20948;-73
2021/12/01 01:46:11;;;;;;;5.47;2.45;;;;;;;1.11;88.30;99516.83;1633405;86;21047;-74
2021/12/01 01:48:50;;;;;;;3.90;2.55;;;;;;;1.07;88.27;99521.90;1634063;87;21007;-73
2021/12/01 01:51:19;;;;;;;2.80;2.50;;;;;;;1.03;88.31;99516.40;1647362;86;20916;-73
2021/12/01 01:53:47;;;;;;;2.87;2.25;;;;;;;1.00;88.29;99517.23;1640169;86;20924;-74
2021/12/01 01:56:13;;;;;;;3.12;2.15;;;;;;;0.98;88.37;99515.10;1647701;86;20928;-74
2021/12/01 01:58:40;;;;;;;5.95;2.35;;;;;;;0.98;88.43;99526.13;1647900;86;26553;-74
2021/12/01 02:01:41;;;;;;;2.85;1.77;;;;;;;0.98;88.43;99520.19;1646182;86;20920;-74
2021/12/01 02:03:53;;;;;;;4.40;1.85;;;;;;;0.98;88.48;99517.65;1633224;86;20908;-74
2021/12/01 02:06:23;;;;;;;2.62;1.60;;;;;;;0.99;88.49;99522.75;1647271;86;20964;-74
2021/12/01 02:08:54;;;;;;;2.15;1.60;;;;;;;1.01;88.52;99529.12;1639612;87;20959;-74
2021/12/01 02:11:22;;;;;;;3.62;1.95;;;;;;;1.02;88.56;99533.36;1645837;86;21547;-74
2021/12/01 02:13:49;;;;;;;1.98;1.45;;;;;;;1.05;88.59;99533.34;1647756;86;20932;-73
2021/12/01 02:16:17;;;;;;;1.92;1.30;;;;;;;1.07;88.56;99530.39;1642303;86;21235;-74
2021/12/01 02:18:44;;;;;;;2.27;1.27;;;;;;;1.09;88.58;99538.88;1633955;86;20914;-74
2021/12/01 02:21:15;;;;;;;3.30;1.40;;;;;;;1.12;88.61;99533.80;1645601;86;20936;-73
2021/12/01 02:23:49;;;;;;;1.98;1.60;;;;;;;1.14;88.60;99529.58;1629201;87;21000;-73
2021/12/01 02:26:19;;;;;;;2.85;1.42;;;;;;;1.17;88.58;99529.59;1648901;87;20916;-74
2021/12/01 02:28:49;;;;;;;3.58;1.45;;;;;;;1.20;88.58;99538.52;1640803;86;20948;-74
2021/12/01 02:31:16;;;;;;;3.90;1.72;;;;;;;1.23;88.59;99537.67;1649845;86;20909;-74
2021/12/01 02:33:43;;;;;;;2.85;2.02;;;;;;;1.26;88.57;99536.41;1649620;85;20995;-74
2021/12/01 02:36:15;;;;;;;2.55;1.47;;;;;;;1.26;88.55;99540.23;1644491;86;21057;-74
2021/12/01 02:38:47;;;;;;;3.17;1.35;;;;;;;1.28;88.54;99534.73;1644615;87;21047;-74
2021/12/01 02:41:15;;;;;;;1.47;1.12;;;;;;;1.29;88.53;99541.52;1649339;86;20999;-74
2021/12/01 02:43:44;;;;;;;1.98;1.45;;;;;;;1.29;88.51;99539.83;1648672;86;21118;-74
2021/12/01 02:46:11;;;;;;;2.65;1.85;;;;;;;1.30;88.56;99537.70;1642503;85;21138;-74
2021/12/01 02:48:44;;;;;;;3.92;1.60;;;;;;;1.34;88.60;99539.84;1647825;86;21127;-74
2021/12/01 02:51:11;;;;;;;2.70;1.87;;;;;;;1.37;88.60;99532.64;1648435;86;21068;-73
2021/12/01 02:53:40;;;;;;;3.95;1.98;;;;;;;1.39;88.60;99538.59;1638316;86;21059;-74
2021/12/01 02:56:07;;;;;;;3.12;2.10;;;;;;;1.41;88.62;99537.75;1640308;87;21131;-74
2021/12/01 02:58:40;;;;;;;3.37;2.22;;;;;;;1.44;88.64;99538.19;1648678;87;21063;-74
2021/12/01 03:01:11;;;;;;;5.95;2.27;;;;;;;1.47;88.64;99539.05;1641382;86;21063;-74
2021/12/01 03:03:41;;;;;;;4.35;2.42;;;;;;;1.49;88.65;99536.08;1659079;85;21059;-74
2021/12/01 03:06:08;;;;;;;12.18;2.67;;;;;;;1.51;88.62;99545.85;1649242;86;20960;-74
2021/12/01 03:08:36;;;;;;;3.45;2.62;;;;;;;1.54;88.64;99545.86;1642609;86;21015;-73
2021/12/01 03:11:05;;;;;;;3.52;2.25;;;;;;;1.54;88.63;99540.77;1632967;87;21067;-74
2021/12/01 03:13:32;;;;;;;3.90;2.62;;;;;;;1.57;88.63;99538.63;1648464;86;21078;-74
2021/12/01 03:16:00;;;;;;;3.58;2.50;;;;;;;1.58;88.63;99538.63;1627791;86;21334;-74
2021/12/01 03:18:29;;;;;;;4.55;2.80;;;;;;;1.58;88.62;99534.80;1650268;86;21090;-74
2021/12/01 03:20:56;;;;;;;4.42;2.70;;;;;;;1.60;88.62;99531.84;1655934;85;28198;-74
2021/12/01 03:23:23;;;;;;;3.83;2.80;;;;;;;1.61;88.62;99528.45;1649294;85;21134;-74
2021/12/01 03:25:50;;;;;;;3.20;2.50;;;;;;;1.63;88.64;99519.53;1656139;86;21058;-74
2021/12/01 03:28:18;;;;;;;3.58;3.05;;;;;;;1.63;88.65;99514.02;1655690;85;21038;-73
2021/12/01 03:30:45;;;;;;;6.15;3.52;;;;;;;1.63;88.59;99508.91;1656565;85;21598;-73
2021/12/01 03:33:17;;;;;;;8.23;3.25;;;;;;;1.63;88.59;99511.89;1648574;85;20920;-74
2021/12/01 03:35:46;;;;;;;5.03;3.30;;;;;;;1.63;88.61;99501.70;1653143;85;20911;-74
2021/12/01 03:38:13;;;;;;;3.35;2.77;;;;;;;1.62;88.58;99504.66;1653651;86;21337;-73
2021/12/01 03:40:40;;;;;;;5.08;2.98;;;;;;;1.64;88.62;99505.52;1656428;85;20967;-74
2021/12/01 03:43:06;;;;;;;3.50;3.10;;;;;;;1.63;88.62;99493.62;1657401;85;20931;-74
2021/12/01 03:45:33;;;;;;;3.55;3.12;;;;;;;1.64;88.63;99493.20;1651269;85;20940;-74
2021/12/01 03:47:59;;;;;;;4.62;3.17;;;;;;;1.64;88.63;99488.95;1647596;85;20968;-73
2021/12/01 03:50:33;;;;;;;3.70;3.12;;;;;;;1.65;88.61;99486.84;1645181;85;21019;-73
2021/12/01 03:52:59;;;;;;;7.05;2.80;;;;;;;1.65;88.65;99477.07;1656466;85;20924;-74
2021/12/01 03:55:26;;;;;;;6.05;3.08;;;;;;;1.66;88.65;99482.17;1644229;85;20935;-73
2021/12/01 03:57:52;;;;;;;5.78;2.83;;;;;;;1.66;88.64;99483.44;1657867;86;28128;-73
2021/12/01 04:00:19;;;;;;;6.22;3.40;;;;;;;1.65;88.61;99482.16;1657439;86;26366;-74
2021/12/01 04:02:46;;;;;;;5.83;3.80;;;;;;;1.64;88.65;99482.59;1645926;85;20955;-73
2021/12/01 04:05:13;;;;;;;4.25;3.55;;;;;;;1.65;88.63;99493.20;1657384;85;21388;-73
2021/12/01 04:07:40;;;;;;;;;;;;;;;1.66;88.64;99499.16;1650947;85;21453;-74
2021/12/01 04:10:12;;;;;;;7.80;4.50;;;;;;;1.65;88.67;99500.85;1656103;85;20175;-74
2021/12/01 04:12:39;;;;;;;5.62;4.35;;;;;;;1.64;88.68;99499.58;1644357;85;21054;-74
2021/12/01 04:15:07;;;;;;;6.47;5.15;;;;;;;1.65;88.68;99507.64;1655594;85;21106;-73
2021/12/01 04:17:33;;;;;;;5.80;4.28;;;;;;;1.66;88.68;99502.98;1657241;85;20943;-74
2021/12/01 04:19:59;;;;;;;6.00;4.60;;;;;;;1.65;88.71;99504.67;1644319;86;21094;-74
2021/12/01 04:22:26;;;;;;;7.47;5.42;;;;;;;1.65;88.66;99508.50;1600678;87;21558;-74
2021/12/01 04:24:52;;;;;;;7.15;5.15;;;;;;;1.64;88.66;99505.52;1646934;86;21580;-73
2021/12/01 04:27:24;;;;;;;5.37;4.80;;;;;;;1.64;88.67;99497.87;1637220;86;21044;-74
2021/12/01 04:29:51;;;;;;;11.50;5.58;;;;;;;1.64;88.67;99487.69;1640408;86;21072;-74
2021/12/01 04:32:17;;;;;;;6.17;4.58;;;;;;;1.64;88.67;99484.28;1645650;86;21478;-73
2021/12/01 04:34:43;;;;;;;7.00;5.10;;;;;;;1.64;88.70;99477.49;1603583;87;21558;-73
2021/12/01 04:37:10;;;;;;;9.45;5.92;;;;;;;1.65;88.71;99478.34;1592603;89;21023;-74
2021/12/01 04:39:37;;;;;;;11.78;6.03;;;;;;;1.64;88.67;99472.82;1645920;86;21061;-73
2021/12/01 04:42:05;;;;;;;9.73;6.35;;;;;;;1.61;88.63;99469.84;1648208;86;26922;-74
2021/12/01 04:44:34;;;;;;;9.68;6.70;;;;;;;1.60;88.61;99473.23;1623070;88;21048;-73
2021/12/01 04:47:03;;;;;;;9.28;6.30;;;;;;;1.56;88.57;99474.08;1644550;85;20993;-74
2021/12/01 04:49:32;;;;;;;12.68;7.53;;;;;;;1.54;88.54;99474.95;1629023;86;21004;-74
2021/12/01 04:52:00;;;;;;;15.88;7.42;;;;;;;1.49;88.53;99466.03;1619689;87;21100;-73
2021/12/01 04:54:28;;;;;;;15.10;8.40;;;;;;;1.44;88.49;99459.23;1605637;88;21025;-73
2021/12/01 04:57:04;;;;;;;8.60;6.33;;;;;;;1.39;88.48;99469.83;1595144;87;20922;-74
2021/12/01 04:59:33;;;;;;;6.78;6.08;;;;;;;1.33;88.46;99468.11;1646948;86;20994;-73
2021/12/01 05:01:59;;;;;;;6.53;5.17;;;;;;;1.29;88.54;99469.80;1610827;87;20974;-73
2021/12/01 05:04:29;;;;;;;6.78;5.12;;;;;;;1.26;88.55;99467.66;1586041;89;20905;-73
2021/12/01 05:06:56;;;;;;;7.58;5.05;;;;;;;1.25;88.62;99475.73;1592218;88;20933;-73
2021/12/01 05:09:22;;;;;;;8.65;5.50;;;;;;;1.25;88.68;99465.97;1648655;86;20967;-74
2021/12/01 05:11:49;;;;;;;7.65;4.97;;;;;;;1.25;88.69;99460.87;1626734;88;21503;-74
2021/12/01 05:14:16;;;;;;;10.05;5.35;;;;;;;1.25;88.74;99461.72;1586338;88;20971;-70
2021/12/01 05:16:42;;;;;;;;;;;;;;;1.26;88.76;99450.69;1583798;89;20945;-71
2021/12/01 05:19:10;;;;;;;10.68;6.22;;;;;;;1.27;88.76;99452.39;1587484;89;20258;-71
2021/12/01 05:21:38;;;;;;;9.80;6.30;;;;;;;1.28;88.78;99452.82;1590149;88;21374;-71
2021/12/01 05:24:05;;;;;;;6.90;6.03;;;;;;;1.29;88.79;99450.70;1625214;87;20977;-71
2021/12/01 05:26:32;;;;;;;9.45;5.83;;;;;;;1.31;88.76;99448.16;1625024;87;20967;-71
2021/12/01 05:28:58;;;;;;;7.17;5.80;;;;;;;1.31;88.76;99445.61;1628759;87;21472;-71
2021/12/01 05:31:24;;;;;;;7.80;6.45;;;;;;;1.33;88.77;99446.05;1643516;86;21454;-71
2021/12/01 05:33:51;;;;;;;7.22;6.25;;;;;;;1.35;88.75;99440.95;1611777;87;21479;-71
2021/12/01 05:36:17;;;;;;;8.60;6.58;;;;;;;1.35;88.75;99437.13;1577074;89;20984;-71
2021/12/01 05:38:44;;;;;;;8.15;6.03;;;;;;;1.36;88.76;99433.74;1590639;88;26359;-71
2021/12/01 05:41:10;;;;;;;7.08;6.35;;;;;;;1.34;88.74;99420.16;1585413;88;20906;-71
2021/12/01 05:43:37;;;;;;;10.48;6.65;;;;;;;1.39;88.76;99428.66;1593508;89;21450;-71
2021/12/01 05:46:03;;;;;;;;;;;;;;;1.42;88.75;99430.36;1591876;89;21456;-71
2021/12/01 05:48:29;;;;;;;6.78;5.37;;;;;;;1.45;88.77;99432.91;1591074;89;20143;-71
2021/12/01 05:50:56;;;;;;;6.87;5.58;;;;;;;1.45;88.76;99422.30;1590824;88;21405;-71
2021/12/01 05:53:22;;;;;;;9.93;6.67;;;;;;;1.47;88.75;99427.39;1581710;88;21570;-71
2021/12/01 05:55:48;;;;;;;10.30;6.62;;;;;;;1.47;88.72;99437.16;1592977;88;21606;-71
2021/12/01 05:58:16;;;;;;;8.75;6.62;;;;;;;1.48;88.72;99424.84;1587913;88;21645;-71
2021/12/01 06:00:42;;;;;;;8.20;6.75;;;;;;;1.50;88.73;99412.97;1592557;89;22016;-71
2021/12/01 06:03:09;;;;;;;18.12;8.70;;;;;;;1.52;88.76;99418.91;1596315;88;21608;-71
2021/12/01 06:05:37;;;;;;;33.00;12.55;;;;;;;1.53;88.70;99416.79;1584908;88;22306;-71
2021/12/01 06:08:04;;;;;;;26.20;12.28;;;;;;;1.53;88.69;99422.31;1589018;89;21088;-71
2021/12/01 06:10:30;;;;;;;34.27;13.05;;;;;;;1.54;88.69;99419.77;1594923;89;21830;-71
2021/12/01 06:12:57;;;;;;;31.15;12.40;;;;;;;1.53;88.64;99417.22;1594879;89;21526;-71
2021/12/01 06:15:24;;;;;;;19.75;9.35;;;;;;;1.54;88.66;99421.46;1587101;88;21525;-71
2021/12/01 06:17:58;;;;;;;14.40;6.87;;;;;;;1.53;88.63;99410.42;1580765;89;21656;-71
2021/12/01 06:20:25;;;;;;;13.03;7.17;;;;;;;1.53;88.61;99412.97;1594837;88;21470;-71
2021/12/01 06:22:52;;;;;;;10.63;6.58;;;;;;;1.53;88.62;99406.60;1594802;89;21504;-71
2021/12/01 06:25:19;;;;;;;;;;;;;;;1.53;88.63;99397.69;1577863;89;21088;-71
2021/12/01 06:27:48;;;;;;;10.25;6.17;;;;;;;1.54;88.62;99403.62;1589429;89;20203;-71
2021/12/01 06:30:16;;;;;;;7.00;5.30;;;;;;;1.54;88.61;99408.73;1594447;88;22176;-71
2021/12/01 06:32:42;;;;;;;6.12;5.35;;;;;;;1.53;88.58;99411.70;1590142;88;21488;-71
2021/12/01 06:35:08;;;;;;;8.03;5.15;;;;;;;1.52;88.51;99401.50;1591305;89;21083;-71
2021/12/01 06:37:38;;;;;;;10.03;6.78;;;;;;;1.50;88.50;99390.47;1593996;89;21437;-71
2021/12/01 06:40:07;;;;;;;6.33;5.53;;;;;;;1.49;88.54;99386.22;1594139;89;21632;-71
2021/12/01 06:42:35;;;;;;;7.00;5.12;;;;;;;1.48;88.51;99377.73;1590219;89;20966;-71
2021/12/01 06:45:07;;;;;;;6.62;4.85;;;;;;;1.46;88.46;99381.13;1594427;89;21511;-71
2021/12/01 06:47:34;;;;;;;7.45;4.80;;;;;;;1.44;88.45;99380.27;1587625;89;20949;-71
2021/12/01 06:50:01;;;;;;;8.65;6.08;;;;;;;1.39;88.42;99380.27;1595789;89;20970;-71
2021/12/01 06:52:34;;;;;;;8.03;6.17;;;;;;;1.37;88.43;99376.87;1595392;89;21450;-71
2021/12/01 06:55:03;;;;;;;6.47;5.50;;;;;;;1.36;88.48;99370.08;1587180;89;21414;-71
2021/12/01 06:57:29;;;;;;;11.22;6.90;;;;;;;1.36;88.53;99372.62;1599131;88;21409;-71
2021/12/01 06:59:55;;;;;;;7.65;6.42;;;;;;;1.37;88.55;99369.66;1595938;88;21517;-71
2021/12/01 07:02:22;;;;;;;11.73;7.50;;;;;;;1.38;88.55;99370.08;1586691;88;21619;-71
2021/12/01 07:04:51;;;;;;;13.53;8.05;;;;;;;1.39;88.56;99371.35;1594500;88;22094;-71
2021/12/01 07:07:17;;;;;;;7.20;6.50;;;;;;;1.41;88.57;99367.11;1589541;88;21080;-71
2021/12/01 07:09:45;;;;;;;7.60;6.55;;;;;;;1.40;88.51;99367.11;1593256;88;22585;-71
2021/12/01 07:12:15;;;;;;;8.35;7.12;;;;;;;1.41;88.51;99358.62;1581732;88;21490;-71
2021/12/01 07:14:41;;;;;;;6.65;5.95;;;;;;;1.41;88.52;99362.02;1604338;88;21403;-71
2021/12/01 07:17:08;;;;;;;6.92;6.22;;;;;;;1.41;88.48;99345.89;1601855;88;21386;-71
2021/12/01 07:19:34;;;;;;;;;;;;;;;1.41;88.46;99347.16;1601746;88;21438;-71
2021/12/01 07:22:00;;;;;;;7.20;6.47;;;;;;;1.41;88.47;99339.09;1613841;87;24011;-71
2021/12/01 07:24:29;;;;;;;6.92;6.35;;;;;;;1.41;88.44;99328.06;1609809;86;21410;-71
2021/12/01 07:26:55;;;;;;;7.45;6.75;;;;;;;1.40;88.44;99323.39;1601553;87;20974;-71
2021/12/01 07:29:22;;;;;;;6.58;5.50;;;;;;;1.40;88.48;99314.90;1612452;87;20982;-71
2021/12/01 07:31:48;;;;;;;;;;;;;;;1.40;88.45;99307.26;1601958;87;21474;-71
2021/12/01 07:34:15;;;;;;;6.72;6.03;;;;;;;1.39;88.45;99296.22;1601732;87;20591;-71
2021/12/01 07:36:41;;;;;;;;;;;;;;;1.39;88.47;99296.22;1599750;87;21359;-71
2021/12/01 07:39:09;;;;;;;9.80;5.78;;;;;;;1.40;88.48;99294.10;1600386;87;20141;-71
2021/12/01 07:41:36;;;;;;;7.80;6.55;;;;;;;1.40;88.51;99285.19;1600016;87;26788;-71
2021/12/01 07:44:02;;;;;;;6.97;6.28;;;;;;;1.40;88.49;99278.82;1605920;88;20942;-71
2021/12/01 07:46:28;;;;;;;7.08;6.15;;;;;;;1.42;88.54;99276.27;1604634;88;21131;-71
2021/12/01 07:48:55;;;;;;;6.42;5.80;;;;;;;1.44;88.53;99272.03;1605544;88;21080;-71
2021/12/01 07:51:21;;;;;;;6.15;5.25;;;;;;;1.43;88.52;99263.53;1596634;87;21080;-71
2021/12/01 07:53:47;;;;;;;6.05;5.05;;;;;;;1.46;88.56;99264.81;1598623;87;21104;-71
2021/12/01 07:56:15;;;;;;;5.45;4.87;;;;;;;1.46;88.53;99260.14;1606959;87;20985;-71
2021/12/01 07:58:41;;;;;;;6.72;5.95;;;;;;;1.47;88.55;99260.56;1616608;86;21348;-71
2021/12/01 08:01:07;;;;;;;6.05;5.45;;;;;;;1.48;88.54;99263.11;1604868;87;21084;-71
2021/12/01 08:03:34;;;;;;;5.85;5.25;;;;;;;1.49;88.55;99253.77;1600860;87;21084;-71
2021/12/01 08:06:00;;;;;;;5.53;4.53;;;;;;;1.52;88.55;99260.13;1602864;87;20976;-71
2021/12/01 08:08:27;;;;;;;7.62;5.10;;;;;;;1.51;88.55;99260.56;1605551;87;21069;-71
2021/12/01 08:10:54;;;;;;;7.67;5.15;;;;;;;1.52;88.53;99260.13;1598144;87;21072;-71
2021/12/01 08:13:20;;;;;;;5.45;4.20;;;;;;;1.54;88.55;99256.73;1600648;88;21396;-71
2021/12/01 08:15:48;;;;;;;6.25;4.50;;;;;;;1.57;88.56;99255.84;1599517;87;20992;-71
2021/12/01 08:18:15;;;;;;;7.33;3.98;;;;;;;1.57;88.54;99246.51;1608986;87;21123;-71
2021/12/01 08:20:42;;;;;;;5.35;3.95;;;;;;;1.60;88.52;99240.56;1606973;88;21018;-71
2021/12/01 08:23:08;;;;;;;8.58;4.78;;;;;;;1.60;88.55;99238.86;1601467;88;21592;-71
2021/12/01 08:25:35;;;;;;;4.83;4.35;;;;;;;1.60;88.52;99233.77;1604415;87;21045;-71
2021/12/01 08:28:02;;;;;;;9.80;4.83;;;;;;;1.60;88.48;99226.13;1596134;87;21136;-71
2021/12/01 08:30:30;;;;;;;6.95;4.10;;;;;;;1.60;88.48;99224.00;1599513;87;21073;-71
2021/12/01 08:32:57;;;;;;;7.50;4.40;;;;;;;1.60;88.50;99231.22;1599234;87;21022;-71
2021/12/01 08:35:24;;;;;;;9.28;4.65;;;;;;;1.61;88.51;99220.60;1630225;86;21023;-71
2021/12/01 08:37:51;;;;;;;8.45;4.60;;;;;;;1.61;88.52;99218.05;1637691;85;21028;-71
2021/12/01 08:40:18;;;;;;;9.35;5.00;;;;;;;1.62;88.52;99214.23;1647855;85;21408;-71
2021/12/01 08:42:46;;;;;;;7.65;5.12;;;;;;;1.63;88.52;99209.98;1646508;85;20952;-71
2021/12/01 08:45:13;;;;;;;11.20;5.35;;;;;;;1.63;88.51;99201.91;1648377;85;20920;-71
2021/12/01 08:47:39;;;;;;;13.48;6.15;;;;;;;1.64;88.50;99200.22;1637522;85;20937;-71
2021/12/01 08:50:09;;;;;;;11.22;6.50;;;;;;;1.63;88.47;99193.42;1645552;85;21117;-71
2021/12/01 08:52:36;;;;;;;8.05;5.65;;;;;;;1.62;88.47;99195.55;1646089;85;20952;-71
2021/12/01 08:55:04;;;;;;;14.28;5.97;;;;;;;1.60;88.49;99193.00;1641236;85;20936;-71
2021/12/01 08:57:30;;;;;;;8.80;5.92;;;;;;;1.59;88.46;99193.01;1642307;85;20921;-71
2021/12/01 08:59:56;;;;;;;7.90;5.95;;;;;;;1.57;88.47;99192.16;1648385;85;26554;-71
2021/12/01 09:02:23;;;;;;;13.08;6.60;;;;;;;1.53;88.43;99184.14;1640548;85;25431;-71
2021/12/01 09:04:53;;;;;;;12.40;5.97;;;;;;;1.49;88.47;99166.74;1642576;85;20909;-71
2021/12/01 09:07:19;;;;;;;13.95;7.03;;;;;;;1.47;88.45;99162.50;1643100;85;21385;-71
2021/12/01 09:09:45;;;;;;;17.15;7.65;;;;;;;1.44;88.45;99160.81;1647101;85;20932;-71
2021/12/01 09:12:11;;;;;;;;;;;;;;;1.39;88.46;99156.58;1647017;85;20944;-71
2021/12/01 09:14:38;;;;;;;10.75;6.10;;;;;;;1.36;88.50;99152.34;1648198;85;20136;-71
2021/12/01 09:17:06;;;;;;;8.35;6.12;;;;;;;1.33;88.50;99143.02;1647413;85;21476;-71
2021/12/01 09:19:32;;;;;;;11.00;6.60;;;;;;;1.30;88.51;99134.53;1635071;85;21083;-71
2021/12/01 09:21:58;;;;;;;11.03;7.10;;;;;;;1.27;88.55;99125.63;1652743;83;21179;-71
2021/12/01 09:24:25;;;;;;;11.93;6.15;;;;;;;1.26;88.56;99119.69;1656400;84;21125;-71
2021/12/01 09:26:51;;;;;;;10.43;6.17;;;;;;;1.25;88.58;99119.27;1640944;84;21356;-71
2021/12/01 09:29:18;;;;;;;14.45;5.60;;;;;;;1.25;88.60;99110.78;1654870;85;21163;-71
2021/12/01 09:31:51;;;;;;;7.80;5.12;;;;;;;1.25;88.65;99108.23;1656950;84;21058;-71
2021/12/01 09:34:17;;;;;;;8.25;4.55;;;;;;;1.25;88.68;99103.99;1642367;84;21134;-71
2021/12/01 09:36:43;;;;;;;7.42;4.50;;;;;;;1.26;88.73;99098.48;1653235;85;21759;-70
2021/12/01 09:39:10;;;;;;;12.65;4.50;;;;;;;1.26;88.74;99094.23;1651943;84;21113;-71
2021/12/01 09:41:37;;;;;;;7.35;5.03;;;;;;;1.27;88.74;99089.98;1654843;84;21068;-71
2021/12/01 09:44:04;;;;;;;11.08;5.50;;;;;;;1.28;88.76;99082.77;1645327;85;21075;-70
2021/12/01 09:46:30;;;;;;;;;;;;;;;1.29;88.74;99079.37;1658510;84;21456;-71
2021/12/01 09:48:59;;;;;;;12.68;5.28;;;;;;;1.28;88.76;99071.31;1647942;84;20222;-71
2021/12/01 09:51:26;;;;;;;10.90;5.42;;;;;;;1.28;88.75;99065.80;1655895;84;21070;-71
2021/12/01 09:53:55;;;;;;;8.60;5.60;;;;;;;1.27;88.75;99067.92;1653119;84;21074;-71
2021/12/01 09:56:25;;;;;;;14.55;4.65;;;;;;;1.27;88.76;99065.38;1657436;84;21102;-71
2021/12/01 09:58:51;;;;;;;9.43;5.17;;;;;;;1.27;88.74;99050.52;1652991;84;21078;-71
2021/12/01 10:01:21;;;;;;;7.25;4.72;;;;;;;1.27;88.75;99042.88;1654505;84;21071;-71
2021/12/01 10:03:48;;;;;;;10.40;5.17;;;;;;;1.27;88.79;99040.34;1652128;85;21055;-71
2021/12/01 10:06:18;;;;;;;8.23;5.17;;;;;;;1.29;88.79;99033.54;1658445;84;22776;-71
2021/12/01 10:08:55;;;;;;;9.65;4.55;;;;;;;1.28;88.77;99027.60;1666977;84;20968;-71
2021/12/01 10:11:26;;;;;;;11.88;5.58;;;;;;;1.28;88.76;99016.57;1652752;85;20926;-71
2021/12/01 10:14:20;;;;;;;12.25;5.15;;;;;;;1.27;88.76;99014.45;1653708;84;21015;-71
2021/12/01 10:16:49;;;;;;;6.67;4.90;;;;;;;1.27;88.75;99002.14;1646812;84;20959;-71
2021/12/01 10:19:18;;;;;;;8.08;4.53;;;;;;;1.25;88.77;98991.97;1654828;85;20912;-71
2021/12/01 10:21:51;;;;;;;7.47;4.87;;;;;;;1.27;88.78;98989.42;1653121;84;20958;-71
2021/12/01 10:24:30;;;;;;;9.10;4.70;;;;;;;1.25;88.74;98981.78;1639709;86;20954;-71
2021/12/01 10:27:00;;;;;;;8.70;4.72;;;;;;;1.25;88.75;98985.61;1656472;85;20938;-71
2021/12/01 10:29:31;;;;;;;10.68;5.03;;;;;;;1.24;88.74;98977.55;1610234;87;20932;-71
2021/12/01 10:32:11;;;;;;;6.72;4.85;;;;;;;1.26;88.76;98967.36;1593670;88;20927;-71
2021/12/01 10:34:58;;;;;;;8.53;5.80;;;;;;;1.27;88.76;98967.78;1588014;88;21019;-71
2021/12/01 10:37:28;;;;;;;8.05;5.08;;;;;;;1.25;88.75;98966.52;1595450;88;20954;-71
2021/12/01 10:40:16;;;;;;;10.80;5.95;;;;;;;1.25;88.76;98956.33;1591759;88;21347;-72
2021/12/01 10:42:58;;;;;;;7.53;5.78;;;;;;;1.27;88.79;98948.69;1594336;88;20957;-71
2021/12/01 10:45:30;;;;;;;8.63;6.95;;;;;;;1.27;88.78;98941.05;1598372;88;20959;-71
2021/12/01 10:47:57;;;;;;;10.00;6.65;;;;;;;1.27;88.82;98935.52;1593471;88;20965;-71
2021/12/01 10:50:28;;;;;;;12.43;6.78;;;;;;;1.29;88.81;98928.72;1596667;85;20916;-72
2021/12/01 10:53:12;;;;;;;15.65;7.58;;;;;;;1.31;88.83;98923.20;1589910;88;21014;-71
2021/12/01 10:55:48;;;;;;;9.75;7.40;;;;;;;1.34;88.83;98922.33;1595682;88;20948;-71
2021/12/01 10:58:15;;;;;;;13.55;6.58;;;;;;;1.36;88.86;98912.98;1601855;88;20985;-71
2021/12/01 11:00:46;;;;;;;12.40;7.72;;;;;;;1.39;88.88;98907.02;1595860;89;20932;-71
2021/12/01 11:03:20;;;;;;;14.73;7.92;;;;;;;1.41;88.86;98898.52;1601768;89;21020;-71
2021/12/01 11:05:50;;;;;;;11.78;7.95;;;;;;;1.44;88.89;98889.59;1599491;88;21151;-71
2021/12/01 11:08:25;;;;;;;13.90;7.95;;;;;;;1.47;88.92;98877.26;1585171;88;21086;-71
2021/12/01 11:11:10;;;;;;;12.85;8.23;;;;;;;1.50;88.89;98872.14;1588483;88;21342;-71
2021/12/01 11:13:41;;;;;;;11.12;7.80;;;;;;;1.52;88.91;98862.79;1587638;88;21115;-72
2021/12/01 11:16:10;;;;;;;11.80;8.10;;;;;;;1.55;88.93;98853.42;1586331;89;21000;-71
2021/12/01 11:18:41;;;;;;;15.03;8.78;;;;;;;1.58;88.95;98848.27;1589835;88;21090;-71
2021/12/01 11:21:22;;;;;;;16.10;8.95;;;;;;;1.61;88.99;98829.57;1595170;88;21490;-71
2021/12/01 11:24:00;;;;;;;16.23;8.88;;;;;;;1.64;88.98;98829.11;1624171;86;20872;-71
2021/12/01 11:26:30;;;;;;;15.35;8.85;;;;;;;1.67;88.99;98816.78;1613939;86;20913;-71
2021/12/01 11:29:04;;;;;;;17.23;9.65;;;;;;;1.71;89.02;98817.59;1607946;87;21018;-71
2021/12/01 11:31:37;;;;;;;14.58;8.63;;;;;;;1.75;89.04;98808.64;1592165;88;21085;-71
2021/12/01 11:34:09;;;;;;;18.27;9.83;;;;;;;1.79;89.03;98801.81;1591391;88;20968;-71
2021/12/01 11:36:39;;;;;;;16.85;8.50;;;;;;;1.82;89.04;98793.70;1591778;88;20982;-71
2021/12/01 11:39:17;;;;;;;14.80;8.58;;;;;;;1.86;89.05;98789.42;1599198;88;21527;-71
2021/12/01 11:41:43;;;;;;;14.18;8.70;;;;;;;1.90;89.07;98778.34;1586096;88;20981;-71
2021/12/01 11:44:15;;;;;;;14.90;10.45;;;;;;;1.94;89.06;98777.02;1615633;87;20936;-71
2021/12/01 11:46:42;;;;;;;14.00;8.45;;;;;;;1.97;89.08;98763.39;1624297;86;21120;-71
2021/12/01 11:49:11;;;;;;;12.60;9.08;;;;;;;2.01;89.07;98752.30;1634776;83;21113;-71
2021/12/01 11:52:00;;;;;;;15.88;9.90;;;;;;;2.04;89.08;98743.34;1615938;86;21100;-71
2021/12/01 11:54:28;;;;;;;12.60;8.58;;;;;;;2.09;89.11;98739.01;1622560;86;21108;-72
2021/12/01 11:57:05;;;;;;;15.00;9.85;;;;;;;2.14;89.12;98735.13;1628364;86;20976;-71